Sagittarian — WCY5210 — position and weather

sailwx.info

Track history (hours):
 
Tides and Currents Weather Stations Pressure Air Temp Water Temp Dewpoint Dewpoint Depression Visibility Wind Speed Wind Dir Waves Ship Positions

Sagittarian

Owner: TAURUS MARINE, SAN FRANCISCO, CA. More information available from US FCC via Universal Licensing System and Coast Guard Vessel Documentation Center.

Last reported at 2014-Oct-29 23:12 UTC. Time now 2014-Oct-31 06:20 UTC.
Position N 37°46' W 122°23'.

; draft 3 m.

Type: Towing. MMSI: 366969510.

Date/timePositionNaut miles runAvg speedWind from/ knotsBaromVisibWave heightAir tempDewpointWater temp
2014-Oct-29 23:12N 37°46' W 122°23'1 1.8
2014-Oct-29 22:34N 37°46' W 122°22'2 1.6
2014-Oct-29 21:34N 37°44' W 122°21'0 0.0
2014-Oct-29 20:34N 37°44' W 122°21'0 0.0
2014-Oct-29 19:34N 37°44' W 122°21'0 0.1
2014-Oct-29 18:33N 37°44' W 122°21'0 0.1
2014-Oct-29 17:34N 37°44' W 122°21'0 0.0
2014-Oct-29 16:33N 37°44' W 122°21'0 0.0
2014-Oct-29 15:33N 37°44' W 122°21'3 2.7
2014-Oct-29 14:33N 37°46' W 122°23'  
2014-Oct-26 18:33N 37°46' W 122°23'9 8.6
2014-Oct-26 17:33N 37°55' W 122°25'1 0.9
2014-Oct-26 16:33N 37°54' W 122°26'0 0.1
2014-Oct-26 15:33N 37°54' W 122°26'7 7.4
2014-Oct-26 14:33N 37°47' W 122°23'1 0.7
2014-Oct-26 13:33N 37°46' W 122°23'0 0.0
2014-Oct-26 12:33N 37°46' W 122°23'0 0.0
2014-Oct-26 11:33N 37°46' W 122°23'0 0.0
2014-Oct-26 10:33N 37°46' W 122°23'0 0.0
2014-Oct-26 09:33N 37°46' W 122°23'0 0.0
2014-Oct-26 08:33N 37°46' W 122°23'0 0.0
2014-Oct-26 07:33N 37°46' W 122°23'0 0.0
2014-Oct-26 06:33N 37°46' W 122°23'0 0.0
2014-Oct-26 05:33N 37°46' W 122°23'0 0.0
2014-Oct-26 04:33N 37°46' W 122°23'0 0.0
2014-Oct-26 03:33N 37°46' W 122°23'0 0.0
2014-Oct-26 02:33N 37°46' W 122°23'0 0.0
2014-Oct-26 01:33N 37°46' W 122°23'0 0.0
2014-Oct-26 00:33N 37°46' W 122°23'0 0.0
2014-Oct-25 23:33N 37°46' W 122°23'0 0.0
2014-Oct-25 22:33N 37°46' W 122°23'1 0.5
2014-Oct-25 21:33N 37°47' W 122°23'8 7.5
2014-Oct-25 20:33N 37°54' W 122°25'13 3.2
2014-Oct-25 16:33N 38°04' W 122°15'2 0.1
2014-Oct-24 23:27N 38°04' W 122°13'7 6.8
2014-Oct-24 22:24N 38°02' W 122°22'6 6.6
2014-Oct-24 21:33N 37°57' W 122°26'1 1.5
2014-Oct-24 20:33N 37°56' W 122°26'9 7.9
2014-Oct-24 19:24N 38°03' W 122°18'2 0.2
2014-Oct-24 05:15N 38°04' W 122°16'3 4.6
2014-Oct-24 04:33N 38°03' W 122°19'6 5.7
2014-Oct-24 03:34N 37°59' W 122°25'5 4.8
2014-Oct-24 02:34N 37°54' W 122°24'2 1.8
2014-Oct-24 01:34N 37°55' W 122°22'2 2.3
2014-Oct-24 00:34N 37°55' W 122°25'7 6.8
2014-Oct-23 23:33N 37°48' W 122°23'  
2014-Oct-21 10:33N 37°46' W 122°23'0 0.2
2014-Oct-21 09:33N 37°47' W 122°23'5 5.3
2014-Oct-21 08:33N 37°49' W 122°29'2 1.6
2014-Oct-21 07:33N 37°49' W 122°31'6 5.9
2014-Oct-21 06:33N 37°53' W 122°25'2 2.2
2014-Oct-21 05:33N 37°55' W 122°25'1 0.6
2014-Oct-21 04:33N 37°55' W 122°25'8 8.2
2014-Oct-21 03:33N 37°47' W 122°23'0 0.0
2014-Oct-20 15:33N 37°47' W 122°23'9 8.7
2014-Oct-20 14:33N 37°55' W 122°25'3 2.9
2014-Oct-20 13:33N 37°52' W 122°25'6 6.1
2014-Oct-20 12:33N 37°46' W 122°23'0 0.0
2014-Oct-20 11:33N 37°46' W 122°23'  
Track history (hours):
 
Tides and Currents Weather Stations Pressure Air Temp Water Temp Dewpoint Dewpoint Depression Visibility Wind Speed Wind Dir Waves Ship Positions

Sagittarian

Owner: TAURUS MARINE, SAN FRANCISCO, CA. More information available from US FCC via Universal Licensing System and Coast Guard Vessel Documentation Center.

Last reported at 2014-Oct-29 23:12 UTC. Time now 2014-Oct-31 06:20 UTC.
Position N 37°46' W 122°23'.

; draft 3 m.

Type: Towing. MMSI: 366969510.

Date/timePositionNaut miles runAvg speedWind from/ knotsBaromVisibWave heightAir tempDewpointWater temp
2014-Oct-29 23:12N 37°46' W 122°23'1 1.8
2014-Oct-29 22:34N 37°46' W 122°22'2 1.6
2014-Oct-29 21:34N 37°44' W 122°21'0 0.0
2014-Oct-29 20:34N 37°44' W 122°21'0 0.0
2014-Oct-29 19:34N 37°44' W 122°21'0 0.1
2014-Oct-29 18:33N 37°44' W 122°21'0 0.1
2014-Oct-29 17:34N 37°44' W 122°21'0 0.0
2014-Oct-29 16:33N 37°44' W 122°21'0 0.0
2014-Oct-29 15:33N 37°44' W 122°21'3 2.7
2014-Oct-29 14:33N 37°46' W 122°23'  
2014-Oct-26 18:33N 37°46' W 122°23'9 8.6
2014-Oct-26 17:33N 37°55' W 122°25'1 0.9
2014-Oct-26 16:33N 37°54' W 122°26'0 0.1
2014-Oct-26 15:33N 37°54' W 122°26'7 7.4
2014-Oct-26 14:33N 37°47' W 122°23'1 0.7
2014-Oct-26 13:33N 37°46' W 122°23'0 0.0
2014-Oct-26 12:33N 37°46' W 122°23'0 0.0
2014-Oct-26 11:33N 37°46' W 122°23'0 0.0
2014-Oct-26 10:33N 37°46' W 122°23'0 0.0
2014-Oct-26 09:33N 37°46' W 122°23'0 0.0
2014-Oct-26 08:33N 37°46' W 122°23'0 0.0
2014-Oct-26 07:33N 37°46' W 122°23'0 0.0
2014-Oct-26 06:33N 37°46' W 122°23'0 0.0
2014-Oct-26 05:33N 37°46' W 122°23'0 0.0
2014-Oct-26 04:33N 37°46' W 122°23'0 0.0
2014-Oct-26 03:33N 37°46' W 122°23'0 0.0
2014-Oct-26 02:33N 37°46' W 122°23'0 0.0
2014-Oct-26 01:33N 37°46' W 122°23'0 0.0
2014-Oct-26 00:33N 37°46' W 122°23'0 0.0
2014-Oct-25 23:33N 37°46' W 122°23'0 0.0
2014-Oct-25 22:33N 37°46' W 122°23'1 0.5
2014-Oct-25 21:33N 37°47' W 122°23'8 7.5
2014-Oct-25 20:33N 37°54' W 122°25'13 3.2
2014-Oct-25 16:33N 38°04' W 122°15'2 0.1
2014-Oct-24 23:27N 38°04' W 122°13'7 6.8
2014-Oct-24 22:24N 38°02' W 122°22'6 6.6
2014-Oct-24 21:33N 37°57' W 122°26'1 1.5
2014-Oct-24 20:33N 37°56' W 122°26'9 7.9
2014-Oct-24 19:24N 38°03' W 122°18'2 0.2
2014-Oct-24 05:15N 38°04' W 122°16'3 4.6
2014-Oct-24 04:33N 38°03' W 122°19'6 5.7
2014-Oct-24 03:34N 37°59' W 122°25'5 4.8
2014-Oct-24 02:34N 37°54' W 122°24'2 1.8
2014-Oct-24 01:34N 37°55' W 122°22'2 2.3
2014-Oct-24 00:34N 37°55' W 122°25'7 6.8
2014-Oct-23 23:33N 37°48' W 122°23'  
2014-Oct-21 10:33N 37°46' W 122°23'0 0.2
2014-Oct-21 09:33N 37°47' W 122°23'5 5.3
2014-Oct-21 08:33N 37°49' W 122°29'2 1.6
2014-Oct-21 07:33N 37°49' W 122°31'6 5.9
2014-Oct-21 06:33N 37°53' W 122°25'2 2.2
2014-Oct-21 05:33N 37°55' W 122°25'1 0.6
2014-Oct-21 04:33N 37°55' W 122°25'8 8.2
2014-Oct-21 03:33N 37°47' W 122°23'0 0.0
2014-Oct-20 15:33N 37°47' W 122°23'9 8.7
2014-Oct-20 14:33N 37°55' W 122°25'3 2.9
2014-Oct-20 13:33N 37°52' W 122°25'6 6.1
2014-Oct-20 12:33N 37°46' W 122°23'0 0.0
2014-Oct-20 11:33N 37°46' W 122°23'  

Dump ship's entire track history